sensor_id;sensor_type;location;lat;lon;timestamp;P1;durP1;ratioP1;P2;durP2;ratioP2
38787;SDS011;24536;45.488;12.238;2023-06-10T00:01:36;3.20;;;2.20;;
38787;SDS011;24536;45.488;12.238;2023-06-10T00:04:02;2.90;;;2.50;;
38787;SDS011;24536;45.488;12.238;2023-06-10T00:06:29;3.30;;;2.63;;
38787;SDS011;24536;45.488;12.238;2023-06-10T00:09:02;2.22;;;2.03;;
38787;SDS011;24536;45.488;12.238;2023-06-10T00:11:39;3.13;;;2.53;;
38787;SDS011;24536;45.488;12.238;2023-06-10T00:14:05;3.65;;;2.83;;
38787;SDS011;24536;45.488;12.238;2023-06-10T00:16:31;3.50;;;3.20;;
38787;SDS011;24536;45.488;12.238;2023-06-10T00:18:58;3.22;;;2.75;;
38787;SDS011;24536;45.488;12.238;2023-06-10T00:21:27;4.03;;;3.63;;
38787;SDS011;24536;45.488;12.238;2023-06-10T00:23:53;4.20;;;3.80;;
38787;SDS011;24536;45.488;12.238;2023-06-10T00:26:20;4.70;;;2.83;;
38787;SDS011;24536;45.488;12.238;2023-06-10T00:28:49;5.35;;;3.22;;
38787;SDS011;24536;45.488;12.238;2023-06-10T00:31:15;3.85;;;3.10;;
38787;SDS011;24536;45.488;12.238;2023-06-10T00:33:41;5.68;;;3.53;;
38787;SDS011;24536;45.488;12.238;2023-06-10T00:36:06;5.13;;;4.13;;
38787;SDS011;24536;45.488;12.238;2023-06-10T00:38:32;3.28;;;2.97;;
38787;SDS011;24536;45.488;12.238;2023-06-10T00:40:58;4.75;;;3.65;;
38787;SDS011;24536;45.488;12.238;2023-06-10T00:43:24;3.42;;;3.13;;
38787;SDS011;24536;45.488;12.238;2023-06-10T00:45:50;2.92;;;2.63;;
38787;SDS011;24536;45.488;12.238;2023-06-10T00:48:17;4.00;;;2.80;;
38787;SDS011;24536;45.488;12.238;2023-06-10T00:50:44;2.85;;;2.65;;
38787;SDS011;24536;45.488;12.238;2023-06-10T00:53:11;3.20;;;2.75;;
38787;SDS011;24536;45.488;12.238;2023-06-10T00:55:37;3.40;;;3.10;;
38787;SDS011;24536;45.488;12.238;2023-06-10T00:58:04;2.60;;;2.30;;
38787;SDS011;24536;45.488;12.238;2023-06-10T01:00:29;4.32;;;2.85;;
38787;SDS011;24536;45.488;12.238;2023-06-10T01:02:55;4.82;;;2.88;;
38787;SDS011;24536;45.488;12.238;2023-06-10T01:05:21;3.35;;;2.65;;
38787;SDS011;24536;45.488;12.238;2023-06-10T01:13:09;3.40;;;2.72;;
38787;SDS011;24536;45.488;12.238;2023-06-10T01:15:39;2.92;;;2.58;;
38787;SDS011;24536;45.488;12.238;2023-06-10T01:18:06;2.50;;;2.17;;
38787;SDS011;24536;45.488;12.238;2023-06-10T01:20:40;4.85;;;2.72;;
38787;SDS011;24536;45.488;12.238;2023-06-10T01:23:08;2.80;;;2.60;;
38787;SDS011;24536;45.488;12.238;2023-06-10T01:25:39;3.80;;;3.25;;
38787;SDS011;24536;45.488;12.238;2023-06-10T01:28:22;4.28;;;2.80;;
38787;SDS011;24536;45.488;12.238;2023-06-10T01:33:46;4.25;;;2.67;;
38787;SDS011;24536;45.488;12.238;2023-06-10T01:36:15;2.85;;;2.50;;
38787;SDS011;24536;45.488;12.238;2023-06-10T01:38:43;2.75;;;2.45;;
38787;SDS011;24536;45.488;12.238;2023-06-10T01:41:13;6.07;;;2.40;;
38787;SDS011;24536;45.488;12.238;2023-06-10T01:43:42;2.53;;;2.33;;
38787;SDS011;24536;45.488;12.238;2023-06-10T01:46:08;2.38;;;2.15;;
38787;SDS011;24536;45.488;12.238;2023-06-10T01:48:34;2.88;;;2.28;;
38787;SDS011;24536;45.488;12.238;2023-06-10T01:51:00;2.80;;;2.15;;
38787;SDS011;24536;45.488;12.238;2023-06-10T01:53:26;3.00;;;2.70;;
38787;SDS011;24536;45.488;12.238;2023-06-10T01:55:52;2.95;;;2.65;;
38787;SDS011;24536;45.488;12.238;2023-06-10T01:58:17;3.42;;;2.70;;
38787;SDS011;24536;45.488;12.238;2023-06-10T02:00:43;3.45;;;2.72;;
38787;SDS011;24536;45.488;12.238;2023-06-10T02:03:09;3.17;;;2.70;;
38787;SDS011;24536;45.488;12.238;2023-06-10T02:05:34;3.28;;;2.97;;
38787;SDS011;24536;45.488;12.238;2023-06-10T02:08:00;3.05;;;2.75;;
38787;SDS011;24536;45.488;12.238;2023-06-10T02:10:26;3.38;;;2.97;;
38787;SDS011;24536;45.488;12.238;2023-06-10T02:12:52;3.75;;;2.75;;
38787;SDS011;24536;45.488;12.238;2023-06-10T02:15:18;4.18;;;2.60;;
38787;SDS011;24536;45.488;12.238;2023-06-10T02:17:43;3.33;;;3.03;;
38787;SDS011;24536;45.488;12.238;2023-06-10T02:22:39;3.83;;;3.10;;
38787;SDS011;24536;45.488;12.238;2023-06-10T02:25:05;3.33;;;2.88;;
38787;SDS011;24536;45.488;12.238;2023-06-10T02:27:31;3.58;;;3.28;;
38787;SDS011;24536;45.488;12.238;2023-06-10T02:29:57;3.50;;;3.08;;
38787;SDS011;24536;45.488;12.238;2023-06-10T02:32:23;4.43;;;3.55;;
38787;SDS011;24536;45.488;12.238;2023-06-10T02:34:50;3.75;;;3.28;;
38787;SDS011;24536;45.488;12.238;2023-06-10T02:37:16;3.67;;;3.05;;
38787;SDS011;24536;45.488;12.238;2023-06-10T02:39:42;6.13;;;3.58;;
38787;SDS011;24536;45.488;12.238;2023-06-10T02:42:08;5.00;;;3.85;;
38787;SDS011;24536;45.488;12.238;2023-06-10T02:44:33;3.83;;;3.35;;
38787;SDS011;24536;45.488;12.238;2023-06-10T02:46:59;4.47;;;3.22;;
38787;SDS011;24536;45.488;12.238;2023-06-10T02:49:25;4.57;;;3.60;;
38787;SDS011;24536;45.488;12.238;2023-06-10T02:51:54;3.10;;;2.85;;
38787;SDS011;24536;45.488;12.238;2023-06-10T02:54:21;7.00;;;4.55;;
38787;SDS011;24536;45.488;12.238;2023-06-10T02:56:48;4.85;;;4.30;;
38787;SDS011;24536;45.488;12.238;2023-06-10T02:59:13;4.53;;;3.90;;
38787;SDS011;24536;45.488;12.238;2023-06-10T03:01:40;11.18;;;4.82;;
38787;SDS011;24536;45.488;12.238;2023-06-10T03:04:06;5.60;;;4.30;;
38787;SDS011;24536;45.488;12.238;2023-06-10T03:06:32;5.28;;;4.30;;
38787;SDS011;24536;45.488;12.238;2023-06-10T03:08:59;5.55;;;4.30;;
38787;SDS011;24536;45.488;12.238;2023-06-10T03:11:25;5.57;;;4.22;;
38787;SDS011;24536;45.488;12.238;2023-06-10T03:13:51;5.43;;;4.47;;
38787;SDS011;24536;45.488;12.238;2023-06-10T03:16:18;4.60;;;3.72;;
38787;SDS011;24536;45.488;12.238;2023-06-10T03:18:44;5.38;;;4.30;;
38787;SDS011;24536;45.488;12.238;2023-06-10T03:21:10;5.45;;;4.57;;
38787;SDS011;24536;45.488;12.238;2023-06-10T03:23:36;4.88;;;4.20;;
38787;SDS011;24536;45.488;12.238;2023-06-10T03:26:02;6.03;;;4.47;;
38787;SDS011;24536;45.488;12.238;2023-06-10T03:28:30;5.50;;;3.95;;
38787;SDS011;24536;45.488;12.238;2023-06-10T03:30:56;5.70;;;4.05;;
38787;SDS011;24536;45.488;12.238;2023-06-10T03:33:22;5.50;;;4.43;;
38787;SDS011;24536;45.488;12.238;2023-06-10T03:35:47;5.72;;;4.32;;
38787;SDS011;24536;45.488;12.238;2023-06-10T03:38:13;4.68;;;4.13;;
38787;SDS011;24536;45.488;12.238;2023-06-10T03:40:39;4.60;;;4.20;;
38787;SDS011;24536;45.488;12.238;2023-06-10T03:43:05;4.30;;;3.90;;
38787;SDS011;24536;45.488;12.238;2023-06-10T03:45:31;6.95;;;4.38;;
38787;SDS011;24536;45.488;12.238;2023-06-10T03:47:57;4.47;;;3.88;;
38787;SDS011;24536;45.488;12.238;2023-06-10T03:50:23;8.85;;;5.03;;
38787;SDS011;24536;45.488;12.238;2023-06-10T03:52:49;7.45;;;4.50;;
38787;SDS011;24536;45.488;12.238;2023-06-10T03:55:15;5.30;;;4.80;;
38787;SDS011;24536;45.488;12.238;2023-06-10T03:57:42;5.55;;;4.07;;
38787;SDS011;24536;45.488;12.238;2023-06-10T04:00:08;7.05;;;5.25;;
38787;SDS011;24536;45.488;12.238;2023-06-10T04:02:37;6.20;;;5.22;;
38787;SDS011;24536;45.488;12.238;2023-06-10T04:05:10;4.90;;;4.00;;
38787;SDS011;24536;45.488;12.238;2023-06-10T04:07:37;6.88;;;5.07;;
38787;SDS011;24536;45.488;12.238;2023-06-10T04:10:04;9.55;;;4.57;;
38787;SDS011;24536;45.488;12.238;2023-06-10T04:12:31;5.57;;;4.78;;
38787;SDS011;24536;45.488;12.238;2023-06-10T04:14:56;5.43;;;4.90;;
38787;SDS011;24536;45.488;12.238;2023-06-10T04:17:22;7.65;;;4.55;;
38787;SDS011;24536;45.488;12.238;2023-06-10T04:19:48;6.70;;;4.70;;
38787;SDS011;24536;45.488;12.238;2023-06-10T04:22:13;4.40;;;3.88;;
38787;SDS011;24536;45.488;12.238;2023-06-10T04:24:39;4.57;;;4.18;;
38787;SDS011;24536;45.488;12.238;2023-06-10T04:27:05;6.63;;;4.90;;
38787;SDS011;24536;45.488;12.238;2023-06-10T04:29:31;6.40;;;4.60;;
38787;SDS011;24536;45.488;12.238;2023-06-10T04:31:56;7.32;;;4.57;;
38787;SDS011;24536;45.488;12.238;2023-06-10T04:34:22;6.78;;;4.20;;
38787;SDS011;24536;45.488;12.238;2023-06-10T04:36:48;6.22;;;4.07;;
38787;SDS011;24536;45.488;12.238;2023-06-10T04:39:14;6.45;;;4.43;;
38787;SDS011;24536;45.488;12.238;2023-06-10T04:41:41;4.38;;;3.97;;
38787;SDS011;24536;45.488;12.238;2023-06-10T04:44:07;6.35;;;4.40;;
38787;SDS011;24536;45.488;12.238;2023-06-10T04:46:33;4.88;;;3.88;;
38787;SDS011;24536;45.488;12.238;2023-06-10T04:48:58;4.95;;;3.75;;
38787;SDS011;24536;45.488;12.238;2023-06-10T04:51:24;4.75;;;3.78;;
38787;SDS011;24536;45.488;12.238;2023-06-10T04:53:50;5.38;;;3.75;;
38787;SDS011;24536;45.488;12.238;2023-06-10T04:56:15;5.15;;;4.60;;
38787;SDS011;24536;45.488;12.238;2023-06-10T04:58:41;4.47;;;3.85;;
38787;SDS011;24536;45.488;12.238;2023-06-10T05:01:06;4.50;;;3.97;;
38787;SDS011;24536;45.488;12.238;2023-06-10T05:03:32;4.72;;;4.03;;
38787;SDS011;24536;45.488;12.238;2023-06-10T05:05:58;5.80;;;4.18;;
38787;SDS011;24536;45.488;12.238;2023-06-10T05:08:23;4.50;;;4.07;;
38787;SDS011;24536;45.488;12.238;2023-06-10T05:10:49;5.20;;;4.30;;
38787;SDS011;24536;45.488;12.238;2023-06-10T05:13:16;5.68;;;5.00;;
38787;SDS011;24536;45.488;12.238;2023-06-10T05:15:42;5.68;;;4.40;;
38787;SDS011;24536;45.488;12.238;2023-06-10T05:18:09;4.47;;;3.30;;
38787;SDS011;24536;45.488;12.238;2023-06-10T05:20:37;5.68;;;3.83;;
38787;SDS011;24536;45.488;12.238;2023-06-10T05:23:03;4.85;;;3.55;;
38787;SDS011;24536;45.488;12.238;2023-06-10T05:25:32;4.03;;;3.63;;
38787;SDS011;24536;45.488;12.238;2023-06-10T05:27:58;4.67;;;3.80;;
38787;SDS011;24536;45.488;12.238;2023-06-10T05:30:24;3.75;;;3.33;;
38787;SDS011;24536;45.488;12.238;2023-06-10T05:32:51;5.70;;;3.83;;
38787;SDS011;24536;45.488;12.238;2023-06-10T05:35:17;4.43;;;3.28;;
38787;SDS011;24536;45.488;12.238;2023-06-10T05:37:43;5.82;;;3.78;;
38787;SDS011;24536;45.488;12.238;2023-06-10T05:40:09;3.80;;;3.47;;
38787;SDS011;24536;45.488;12.238;2023-06-10T05:42:35;4.57;;;3.50;;
38787;SDS011;24536;45.488;12.238;2023-06-10T05:45:01;4.32;;;3.35;;
38787;SDS011;24536;45.488;12.238;2023-06-10T05:47:28;4.00;;;3.38;;
38787;SDS011;24536;45.488;12.238;2023-06-10T05:49:54;4.22;;;3.80;;
38787;SDS011;24536;45.488;12.238;2023-06-10T05:52:20;3.70;;;2.90;;
38787;SDS011;24536;45.488;12.238;2023-06-10T05:54:45;5.75;;;3.97;;
38787;SDS011;24536;45.488;12.238;2023-06-10T05:57:11;5.35;;;3.17;;
38787;SDS011;24536;45.488;12.238;2023-06-10T05:59:37;4.03;;;3.63;;
38787;SDS011;24536;45.488;12.238;2023-06-10T06:02:02;5.18;;;3.95;;
38787;SDS011;24536;45.488;12.238;2023-06-10T06:04:28;3.83;;;3.38;;
38787;SDS011;24536;45.488;12.238;2023-06-10T06:06:57;4.15;;;3.75;;
38787;SDS011;24536;45.488;12.238;2023-06-10T06:09:23;4.05;;;3.65;;
38787;SDS011;24536;45.488;12.238;2023-06-10T06:11:49;3.95;;;3.10;;
38787;SDS011;24536;45.488;12.238;2023-06-10T06:14:14;3.38;;;2.95;;
38787;SDS011;24536;45.488;12.238;2023-06-10T06:16:40;4.55;;;3.42;;
38787;SDS011;24536;45.488;12.238;2023-06-10T06:19:05;4.63;;;3.80;;
38787;SDS011;24536;45.488;12.238;2023-06-10T06:21:31;4.97;;;3.85;;
38787;SDS011;24536;45.488;12.238;2023-06-10T06:23:57;4.50;;;3.58;;
38787;SDS011;24536;45.488;12.238;2023-06-10T06:26:23;5.00;;;4.38;;
38787;SDS011;24536;45.488;12.238;2023-06-10T06:28:50;3.90;;;3.50;;
38787;SDS011;24536;45.488;12.238;2023-06-10T06:31:17;8.40;;;4.40;;
38787;SDS011;24536;45.488;12.238;2023-06-10T06:33:42;4.95;;;4.32;;
38787;SDS011;24536;45.488;12.238;2023-06-10T06:36:08;4.97;;;4.47;;
38787;SDS011;24536;45.488;12.238;2023-06-10T06:38:34;4.85;;;3.60;;
38787;SDS011;24536;45.488;12.238;2023-06-10T06:40:59;5.28;;;3.45;;
38787;SDS011;24536;45.488;12.238;2023-06-10T06:43:28;4.10;;;3.67;;
38787;SDS011;24536;45.488;12.238;2023-06-10T06:45:55;3.35;;;3.03;;
38787;SDS011;24536;45.488;12.238;2023-06-10T06:48:22;4.63;;;3.70;;
38787;SDS011;24536;45.488;12.238;2023-06-10T06:50:48;5.53;;;4.53;;
38787;SDS011;24536;45.488;12.238;2023-06-10T06:53:14;4.32;;;3.92;;
38787;SDS011;24536;45.488;12.238;2023-06-10T06:55:40;6.90;;;4.80;;
38787;SDS011;24536;45.488;12.238;2023-06-10T06:58:05;4.72;;;4.20;;
38787;SDS011;24536;45.488;12.238;2023-06-10T07:00:31;4.03;;;3.63;;
38787;SDS011;24536;45.488;12.238;2023-06-10T07:02:57;4.00;;;3.65;;
38787;SDS011;24536;45.488;12.238;2023-06-10T07:05:23;5.85;;;4.00;;
38787;SDS011;24536;45.488;12.238;2023-06-10T07:07:52;7.18;;;5.65;;
38787;SDS011;24536;45.488;12.238;2023-06-10T07:10:23;5.88;;;5.28;;
38787;SDS011;24536;45.488;12.238;2023-06-10T07:12:50;6.22;;;5.57;;
38787;SDS011;24536;45.488;12.238;2023-06-10T07:15:15;7.90;;;5.57;;
38787;SDS011;24536;45.488;12.238;2023-06-10T07:17:41;6.85;;;5.35;;
38787;SDS011;24536;45.488;12.238;2023-06-10T07:20:07;7.57;;;5.70;;
38787;SDS011;24536;45.488;12.238;2023-06-10T07:22:33;4.95;;;4.50;;
38787;SDS011;24536;45.488;12.238;2023-06-10T07:24:59;5.63;;;4.15;;
38787;SDS011;24536;45.488;12.238;2023-06-10T07:27:25;6.63;;;5.35;;
38787;SDS011;24536;45.488;12.238;2023-06-10T07:29:51;5.43;;;4.93;;
38787;SDS011;24536;45.488;12.238;2023-06-10T07:32:16;5.03;;;4.53;;
38787;SDS011;24536;45.488;12.238;2023-06-10T07:34:42;5.97;;;4.63;;
38787;SDS011;24536;45.488;12.238;2023-06-10T07:37:09;4.60;;;4.13;;
38787;SDS011;24536;45.488;12.238;2023-06-10T07:39:34;3.22;;;2.83;;
38787;SDS011;24536;45.488;12.238;2023-06-10T07:42:00;3.67;;;3.38;;
38787;SDS011;24536;45.488;12.238;2023-06-10T07:44:26;5.15;;;3.35;;
38787;SDS011;24536;45.488;12.238;2023-06-10T07:46:52;4.97;;;3.80;;
38787;SDS011;24536;45.488;12.238;2023-06-10T07:49:17;7.70;;;4.85;;
38787;SDS011;24536;45.488;12.238;2023-06-10T07:51:43;6.07;;;4.95;;
38787;SDS011;24536;45.488;12.238;2023-06-10T07:54:09;5.90;;;4.30;;
38787;SDS011;24536;45.488;12.238;2023-06-10T07:56:37;6.25;;;5.65;;
38787;SDS011;24536;45.488;12.238;2023-06-10T07:59:03;5.60;;;4.97;;
38787;SDS011;24536;45.488;12.238;2023-06-10T08:01:29;5.60;;;5.00;;
38787;SDS011;24536;45.488;12.238;2023-06-10T08:03:56;4.72;;;4.25;;
38787;SDS011;24536;45.488;12.238;2023-06-10T08:06:21;5.03;;;4.53;;
38787;SDS011;24536;45.488;12.238;2023-06-10T08:08:47;6.40;;;5.60;;
38787;SDS011;24536;45.488;12.238;2023-06-10T08:11:13;6.38;;;5.32;;
38787;SDS011;24536;45.488;12.238;2023-06-10T08:13:39;5.22;;;4.57;;
38787;SDS011;24536;45.488;12.238;2023-06-10T08:16:08;7.85;;;5.63;;
38787;SDS011;24536;45.488;12.238;2023-06-10T08:18:33;5.63;;;3.67;;
38787;SDS011;24536;45.488;12.238;2023-06-10T08:20:59;4.20;;;3.25;;
38787;SDS011;24536;45.488;12.238;2023-06-10T08:23:25;4.32;;;3.10;;
38787;SDS011;24536;45.488;12.238;2023-06-10T08:25:51;5.40;;;3.85;;
38787;SDS011;24536;45.488;12.238;2023-06-10T08:28:17;4.35;;;3.92;;
38787;SDS011;24536;45.488;12.238;2023-06-10T08:30:43;4.45;;;3.55;;
38787;SDS011;24536;45.488;12.238;2023-06-10T08:33:09;4.20;;;3.58;;
38787;SDS011;24536;45.488;12.238;2023-06-10T08:35:35;4.05;;;3.65;;
38787;SDS011;24536;45.488;12.238;2023-06-10T08:38:00;4.93;;;4.30;;
38787;SDS011;24536;45.488;12.238;2023-06-10T08:40:26;4.45;;;3.80;;
38787;SDS011;24536;45.488;12.238;2023-06-10T08:43:08;4.88;;;4.38;;
38787;SDS011;24536;45.488;12.238;2023-06-10T08:45:42;3.63;;;3.10;;
38787;SDS011;24536;45.488;12.238;2023-06-10T08:48:11;5.50;;;3.55;;
38787;SDS011;24536;45.488;12.238;2023-06-10T08:50:39;6.07;;;3.88;;
38787;SDS011;24536;45.488;12.238;2023-06-10T08:53:06;5.15;;;4.65;;
38787;SDS011;24536;45.488;12.238;2023-06-10T08:55:33;5.85;;;4.53;;
38787;SDS011;24536;45.488;12.238;2023-06-10T08:58:03;4.32;;;3.28;;
38787;SDS011;24536;45.488;12.238;2023-06-10T09:00:29;4.53;;;3.75;;
38787;SDS011;24536;45.488;12.238;2023-06-10T09:02:57;5.55;;;3.80;;
38787;SDS011;24536;45.488;12.238;2023-06-10T09:05:27;4.47;;;3.30;;
38787;SDS011;24536;45.488;12.238;2023-06-10T09:07:54;4.90;;;3.50;;
38787;SDS011;24536;45.488;12.238;2023-06-10T09:10:22;4.20;;;3.80;;
38787;SDS011;24536;45.488;12.238;2023-06-10T09:12:48;6.40;;;4.07;;
38787;SDS011;24536;45.488;12.238;2023-06-10T09:15:13;5.03;;;4.43;;
38787;SDS011;24536;45.488;12.238;2023-06-10T09:17:42;5.35;;;4.30;;
38787;SDS011;24536;45.488;12.238;2023-06-10T09:20:08;4.38;;;3.97;;
38787;SDS011;24536;45.488;12.238;2023-06-10T09:22:34;4.65;;;3.65;;
38787;SDS011;24536;45.488;12.238;2023-06-10T09:27:33;4.78;;;4.15;;
38787;SDS011;24536;45.488;12.238;2023-06-10T09:30:34;5.63;;;4.57;;
38787;SDS011;24536;45.488;12.238;2023-06-10T09:33:01;6.13;;;4.88;;
38787;SDS011;24536;45.488;12.238;2023-06-10T09:35:29;4.10;;;3.70;;
38787;SDS011;24536;45.488;12.238;2023-06-10T09:37:58;5.75;;;4.28;;
38787;SDS011;24536;45.488;12.238;2023-06-10T09:42:57;6.13;;;4.55;;
38787;SDS011;24536;45.488;12.238;2023-06-10T09:45:28;7.28;;;4.20;;
38787;SDS011;24536;45.488;12.238;2023-06-10T09:47:56;6.60;;;4.22;;
38787;SDS011;24536;45.488;12.238;2023-06-10T09:50:22;5.80;;;4.65;;
38787;SDS011;24536;45.488;12.238;2023-06-10T09:52:48;6.78;;;4.32;;
38787;SDS011;24536;45.488;12.238;2023-06-10T09:55:16;5.82;;;5.07;;
38787;SDS011;24536;45.488;12.238;2023-06-10T09:57:42;7.22;;;5.93;;
38787;SDS011;24536;45.488;12.238;2023-06-10T10:00:12;5.88;;;5.25;;
38787;SDS011;24536;45.488;12.238;2023-06-10T10:02:48;6.10;;;5.50;;
38787;SDS011;24536;45.488;12.238;2023-06-10T10:05:15;6.00;;;5.28;;
38787;SDS011;24536;45.488;12.238;2023-06-10T10:07:43;10.05;;;7.18;;
38787;SDS011;24536;45.488;12.238;2023-06-10T10:10:09;9.80;;;6.45;;
38787;SDS011;24536;45.488;12.238;2023-06-10T10:12:37;7.97;;;6.40;;
38787;SDS011;24536;45.488;12.238;2023-06-10T10:15:05;7.30;;;6.53;;
38787;SDS011;24536;45.488;12.238;2023-06-10T10:17:33;8.18;;;7.28;;
38787;SDS011;24536;45.488;12.238;2023-06-10T10:20:03;10.20;;;7.90;;
38787;SDS011;24536;45.488;12.238;2023-06-10T10:22:40;7.88;;;7.07;;
38787;SDS011;24536;45.488;12.238;2023-06-10T10:25:10;9.63;;;8.25;;
38787;SDS011;24536;45.488;12.238;2023-06-10T10:27:54;8.95;;;7.60;;
38787;SDS011;24536;45.488;12.238;2023-06-10T10:30:42;10.73;;;8.70;;
38787;SDS011;24536;45.488;12.238;2023-06-10T10:35:43;10.20;;;7.63;;
38787;SDS011;24536;45.488;12.238;2023-06-10T10:38:10;9.88;;;7.65;;
38787;SDS011;24536;45.488;12.238;2023-06-10T10:40:36;11.93;;;8.23;;
38787;SDS011;24536;45.488;12.238;2023-06-10T10:43:03;8.63;;;7.70;;
38787;SDS011;24536;45.488;12.238;2023-06-10T10:45:30;8.45;;;7.57;;
38787;SDS011;24536;45.488;12.238;2023-06-10T10:47:55;10.02;;;8.43;;
38787;SDS011;24536;45.488;12.238;2023-06-10T10:50:22;10.98;;;8.35;;
38787;SDS011;24536;45.488;12.238;2023-06-10T10:57:44;11.23;;;9.88;;
38787;SDS011;24536;45.488;12.238;2023-06-10T11:00:24;13.20;;;11.82;;
38787;SDS011;24536;45.488;12.238;2023-06-10T11:05:42;14.10;;;10.65;;
38787;SDS011;24536;45.488;12.238;2023-06-10T11:08:13;12.32;;;10.18;;
38787;SDS011;24536;45.488;12.238;2023-06-10T11:10:40;18.15;;;10.32;;
38787;SDS011;24536;45.488;12.238;2023-06-10T11:15:34;12.73;;;10.35;;
38787;SDS011;24536;45.488;12.238;2023-06-10T11:18:08;12.90;;;10.75;;
38787;SDS011;24536;45.488;12.238;2023-06-10T11:20:59;12.18;;;10.82;;
38787;SDS011;24536;45.488;12.238;2023-06-10T11:31:31;12.43;;;10.35;;
38787;SDS011;24536;45.488;12.238;2023-06-10T11:33:58;11.85;;;10.30;;
38787;SDS011;24536;45.488;12.238;2023-06-10T11:36:25;10.82;;;9.57;;
38787;SDS011;24536;45.488;12.238;2023-06-10T11:38:56;12.65;;;10.45;;
38787;SDS011;24536;45.488;12.238;2023-06-10T11:41:26;12.23;;;10.77;;
38787;SDS011;24536;45.488;12.238;2023-06-10T11:43:54;10.80;;;9.70;;
38787;SDS011;24536;45.488;12.238;2023-06-10T11:46:23;11.73;;;10.48;;
38787;SDS011;24536;45.488;12.238;2023-06-10T11:48:53;11.80;;;10.32;;
38787;SDS011;24536;45.488;12.238;2023-06-10T11:51:20;16.08;;;12.07;;
38787;SDS011;24536;45.488;12.238;2023-06-10T11:53:49;12.82;;;10.82;;
38787;SDS011;24536;45.488;12.238;2023-06-10T11:56:25;13.43;;;11.05;;
38787;SDS011;24536;45.488;12.238;2023-06-10T12:01:34;12.32;;;9.30;;
38787;SDS011;24536;45.488;12.238;2023-06-10T12:04:02;11.93;;;10.63;;
38787;SDS011;24536;45.488;12.238;2023-06-10T12:06:40;11.60;;;10.40;;
38787;SDS011;24536;45.488;12.238;2023-06-10T12:09:21;16.55;;;10.45;;
38787;SDS011;24536;45.488;12.238;2023-06-10T12:11:58;13.80;;;11.75;;
38787;SDS011;24536;45.488;12.238;2023-06-10T12:17:22;12.43;;;9.75;;
38787;SDS011;24536;45.488;12.238;2023-06-10T12:19:57;13.85;;;10.82;;
38787;SDS011;24536;45.488;12.238;2023-06-10T12:22:24;11.88;;;9.68;;
38787;SDS011;24536;45.488;12.238;2023-06-10T12:25:03;11.55;;;10.35;;
38787;SDS011;24536;45.488;12.238;2023-06-10T12:27:31;11.30;;;9.63;;
38787;SDS011;24536;45.488;12.238;2023-06-10T12:29:59;11.70;;;10.50;;
38787;SDS011;24536;45.488;12.238;2023-06-10T12:32:39;12.38;;;11.13;;
38787;SDS011;24536;45.488;12.238;2023-06-10T12:35:06;14.55;;;12.35;;
38787;SDS011;24536;45.488;12.238;2023-06-10T12:37:33;14.13;;;11.75;;
38787;SDS011;24536;45.488;12.238;2023-06-10T12:40:00;13.25;;;11.18;;
38787;SDS011;24536;45.488;12.238;2023-06-10T12:42:27;12.85;;;10.70;;
38787;SDS011;24536;45.488;12.238;2023-06-10T12:44:55;11.70;;;10.20;;
38787;SDS011;24536;45.488;12.238;2023-06-10T12:47:28;11.55;;;10.35;;
38787;SDS011;24536;45.488;12.238;2023-06-10T12:49:57;11.63;;;10.43;;
38787;SDS011;24536;45.488;12.238;2023-06-10T12:52:24;11.25;;;9.25;;
38787;SDS011;24536;45.488;12.238;2023-06-10T12:54:50;10.02;;;8.85;;
38787;SDS011;24536;45.488;12.238;2023-06-10T12:57:16;7.90;;;7.20;;
38787;SDS011;24536;45.488;12.238;2023-06-10T12:59:42;10.05;;;8.80;;
38787;SDS011;24536;45.488;12.238;2023-06-10T13:02:15;9.05;;;7.93;;
38787;SDS011;24536;45.488;12.238;2023-06-10T13:04:41;9.23;;;8.20;;
38787;SDS011;24536;45.488;12.238;2023-06-10T13:07:08;9.02;;;7.45;;
38787;SDS011;24536;45.488;12.238;2023-06-10T13:09:35;8.55;;;7.75;;
38787;SDS011;24536;45.488;12.238;2023-06-10T13:12:02;9.55;;;8.20;;
38787;SDS011;24536;45.488;12.238;2023-06-10T13:14:27;9.90;;;7.95;;
38787;SDS011;24536;45.488;12.238;2023-06-10T13:16:54;8.13;;;7.30;;
38787;SDS011;24536;45.488;12.238;2023-06-10T13:19:20;11.15;;;7.53;;
38787;SDS011;24536;45.488;12.238;2023-06-10T13:21:47;8.98;;;6.65;;
38787;SDS011;24536;45.488;12.238;2023-06-10T13:24:13;7.38;;;5.63;;
38787;SDS011;24536;45.488;12.238;2023-06-10T13:26:38;6.50;;;5.03;;
38787;SDS011;24536;45.488;12.238;2023-06-10T13:29:04;7.53;;;4.85;;
38787;SDS011;24536;45.488;12.238;2023-06-10T13:31:30;6.38;;;5.03;;
38787;SDS011;24536;45.488;12.238;2023-06-10T13:33:57;4.72;;;4.03;;
38787;SDS011;24536;45.488;12.238;2023-06-10T13:36:23;7.43;;;4.95;;
38787;SDS011;24536;45.488;12.238;2023-06-10T13:38:49;7.07;;;4.38;;
38787;SDS011;24536;45.488;12.238;2023-06-10T13:41:14;12.20;;;5.20;;
38787;SDS011;24536;45.488;12.238;2023-06-10T13:43:40;5.85;;;4.50;;
38787;SDS011;24536;45.488;12.238;2023-06-10T13:46:06;5.55;;;4.25;;
38787;SDS011;24536;45.488;12.238;2023-06-10T13:48:32;6.50;;;3.90;;
38787;SDS011;24536;45.488;12.238;2023-06-10T13:50:58;5.20;;;3.58;;
38787;SDS011;24536;45.488;12.238;2023-06-10T13:53:26;4.80;;;3.05;;
38787;SDS011;24536;45.488;12.238;2023-06-10T13:55:52;5.93;;;3.65;;
38787;SDS011;24536;45.488;12.238;2023-06-10T13:58:18;3.50;;;3.08;;
38787;SDS011;24536;45.488;12.238;2023-06-10T14:00:43;3.80;;;3.17;;
38787;SDS011;24536;45.488;12.238;2023-06-10T14:03:09;4.97;;;4.03;;
38787;SDS011;24536;45.488;12.238;2023-06-10T14:05:34;6.05;;;4.25;;
38787;SDS011;24536;45.488;12.238;2023-06-10T14:08:00;4.72;;;3.80;;
38787;SDS011;24536;45.488;12.238;2023-06-10T14:10:26;3.58;;;3.28;;
38787;SDS011;24536;45.488;12.238;2023-06-10T14:12:52;3.63;;;3.05;;
38787;SDS011;24536;45.488;12.238;2023-06-10T14:15:18;9.40;;;3.88;;
38787;SDS011;24536;45.488;12.238;2023-06-10T14:17:44;7.05;;;4.10;;
38787;SDS011;24536;45.488;12.238;2023-06-10T14:20:10;4.97;;;3.70;;
38787;SDS011;24536;45.488;12.238;2023-06-10T14:22:36;4.55;;;3.88;;
38787;SDS011;24536;45.488;12.238;2023-06-10T14:25:01;4.72;;;4.20;;
38787;SDS011;24536;45.488;12.238;2023-06-10T14:27:27;5.15;;;3.83;;
38787;SDS011;24536;45.488;12.238;2023-06-10T14:29:53;5.85;;;4.28;;
38787;SDS011;24536;45.488;12.238;2023-06-10T14:32:19;7.05;;;4.97;;
38787;SDS011;24536;45.488;12.238;2023-06-10T14:34:44;3.85;;;3.45;;
38787;SDS011;24536;45.488;12.238;2023-06-10T14:37:11;6.80;;;3.60;;
38787;SDS011;24536;45.488;12.238;2023-06-10T14:39:37;4.78;;;2.80;;
38787;SDS011;24536;45.488;12.238;2023-06-10T14:42:03;5.35;;;2.60;;
38787;SDS011;24536;45.488;12.238;2023-06-10T14:44:29;3.55;;;2.72;;
38787;SDS011;24536;45.488;12.238;2023-06-10T14:46:56;3.85;;;2.95;;
38787;SDS011;24536;45.488;12.238;2023-06-10T14:49:21;5.00;;;1.92;;
38787;SDS011;24536;45.488;12.238;2023-06-10T14:51:47;2.10;;;1.70;;
38787;SDS011;24536;45.488;12.238;2023-06-10T14:54:14;2.47;;;1.50;;
38787;SDS011;24536;45.488;12.238;2023-06-10T14:56:40;2.63;;;1.75;;
38787;SDS011;24536;45.488;12.238;2023-06-10T14:59:06;2.33;;;1.45;;
38787;SDS011;24536;45.488;12.238;2023-06-10T15:01:32;2.78;;;1.55;;
38787;SDS011;24536;45.488;12.238;2023-06-10T15:03:57;2.53;;;1.48;;
38787;SDS011;24536;45.488;12.238;2023-06-10T15:06:23;2.47;;;1.20;;
38787;SDS011;24536;45.488;12.238;2023-06-10T15:08:49;6.55;;;2.10;;
38787;SDS011;24536;45.488;12.238;2023-06-10T15:11:15;2.83;;;1.15;;
38787;SDS011;24536;45.488;12.238;2023-06-10T15:13:41;7.70;;;1.90;;